Time;durP1;ratioP1;P1;durP2;ratioP2;P2;SDS_P1;SDS_P2;PMS_P1;PMS_P2;Temp;Humidity;BMP_temperature;BMP_pressure;BME280_temperature;BME280_humidity;BME280_pressure;Samples;Min_cycle;Max_cycle;Signal;HPM_P1;HPM_P2
2021/05/21 00:02:05;;;;;;;;;10.50;10.50;;;;;16.42;43.95;98494.06;6112742;22;102545;-95
2021/05/21 00:04:33;;;;;;;;;9.25;8.50;;;;;16.37;44.16;98491.22;6094233;22;102039;-96
2021/05/21 00:07:01;;;;;;;;;11.00;11.00;;;;;16.38;44.20;98490.16;6070906;22;102208;-96
2021/05/21 00:09:29;;;;;;;;;11.25;9.50;;;;;16.37;43.67;98485.78;6092629;22;105216;-96
2021/05/21 00:11:57;;;;;;;;;13.50;11.75;;;;;16.35;43.56;98493.34;6110281;22;101674;-96
2021/05/21 00:14:25;;;;;;;;;12.25;11.00;;;;;16.25;44.37;98477.63;6201464;22;101505;-96
2021/05/21 00:16:53;;;;;;;;;11.25;10.25;;;;;16.31;44.23;98476.66;6160824;22;101723;-96
2021/05/21 00:19:21;;;;;;;;;12.00;10.25;;;;;16.31;43.32;98490.28;6159789;22;106251;-96
2021/05/21 00:21:56;;;;;;;;;12.25;10.25;;;;;16.32;44.01;98493.84;6104743;22;101835;-96
2021/05/21 00:24:32;;;;;;;;;13.00;13.00;;;;;16.25;44.21;98494.00;6130147;22;101721;-96
2021/05/21 00:27:10;;;;;;;;;12.75;10.25;;;;;16.26;44.13;98489.34;6121398;22;102388;-96
2021/05/21 00:29:43;;;;;;;;;12.00;10.50;;;;;16.20;43.76;98479.41;6127279;22;102771;-96
2021/05/21 00:32:18;;;;;;;;;11.00;10.75;;;;;16.21;43.53;98481.06;6139356;22;101836;-96
2021/05/21 00:35:06;;;;;;;;;7.75;7.75;;;;;16.21;44.03;98483.81;6142160;22;102033;-96
2021/05/21 00:37:42;;;;;;;;;11.25;10.50;;;;;16.19;43.75;98477.75;6110092;22;101741;-96
2021/05/21 00:40:20;;;;;;;;;12.00;10.75;;;;;16.18;43.36;98482.38;6140954;22;102110;-96
2021/05/21 00:42:58;;;;;;;;;11.25;10.50;;;;;16.18;44.02;98473.34;6131859;22;102172;-96
2021/05/21 00:45:39;;;;;;;;;10.25;9.50;;;;;16.18;43.16;98476.06;6029002;22;102126;-96
2021/05/21 00:48:14;;;;;;;;;12.00;11.00;;;;;16.20;43.96;98473.97;6150982;22;102116;-96
2021/05/21 00:50:49;;;;;;;;;11.00;9.00;;;;;16.16;43.31;98472.78;6149989;22;104649;-96
2021/05/21 00:53:29;;;;;;;;;11.75;10.50;;;;;16.14;43.34;98472.19;6156647;22;102186;-95
2021/05/21 00:56:11;;;;;;;;;12.75;9.75;;;;;16.09;43.41;98478.34;6066705;22;102074;-96
2021/05/21 00:58:45;;;;;;;;;15.25;11.50;;;;;16.09;43.56;98464.72;6173518;22;102703;-96
2021/05/21 01:01:22;;;;;;;;;12.00;10.50;;;;;16.13;43.87;98473.25;6129338;22;103835;-96
2021/05/21 01:03:57;;;;;;;;;12.75;12.00;;;;;16.03;43.39;98463.75;6065430;22;102168;-96
2021/05/21 01:06:32;;;;;;;;;12.50;11.00;;;;;16.05;43.24;98463.53;6095229;22;102217;-96
2021/05/21 01:09:30;;;;;;;;;15.25;12.50;;;;;16.09;43.18;98472.91;6117175;22;102076;-96
2021/05/21 01:12:07;;;;;;;;;13.50;11.75;;;;;16.02;43.32;98467.59;6091479;22;109710;-96
2021/05/21 01:14:51;;;;;;;;;9.00;8.50;;;;;15.99;43.41;98464.47;6062969;22;102724;-96
2021/05/21 01:17:31;;;;;;;;;11.00;10.00;;;;;16.05;43.65;98471.72;6162315;22;104511;-96
2021/05/21 01:20:08;;;;;;;;;11.50;10.50;;;;;16.02;43.57;98469.47;6031131;22;102084;-96
2021/05/21 01:22:42;;;;;;;;;11.00;11.00;;;;;15.95;43.11;98472.31;6088583;22;105571;-96
2021/05/21 01:25:19;;;;;;;;;11.25;11.00;;;;;15.94;43.71;98453.50;6146518;22;104365;-96
2021/05/21 01:27:55;;;;;;;;;13.25;10.25;;;;;15.94;43.28;98454.28;6090004;22;102447;-96
2021/05/21 01:30:39;;;;;;;;;11.50;11.00;;;;;15.90;42.91;98458.56;6146900;22;102352;-96
2021/05/21 01:33:12;;;;;;;;;18.00;13.50;;;;;15.94;43.36;98461.66;6115689;22;104004;-96
2021/05/21 01:35:48;;;;;;;;;12.75;11.25;;;;;15.89;42.71;98458.81;6116172;22;103049;-96
2021/05/21 01:38:23;;;;;;;;;14.25;13.50;;;;;15.89;43.08;98462.38;6080558;22;104015;-96
2021/05/21 01:41:00;;;;;;;;;13.25;11.00;;;;;15.86;43.33;98457.38;6092409;22;102190;-96
2021/05/21 01:43:37;;;;;;;;;12.00;11.50;;;;;15.86;42.86;98451.09;6079971;22;106665;-96
2021/05/21 01:46:10;;;;;;;;;13.50;10.50;;;;;15.90;43.12;98461.28;6075446;22;102162;-96
2021/05/21 01:48:51;;;;;;;;;10.00;10.00;;;;;15.84;43.19;98453.25;6156157;22;102064;-96
2021/05/21 01:51:33;;;;;;;;;11.50;10.50;;;;;15.88;43.29;98457.16;6089975;22;102433;-96
2021/05/21 01:54:16;;;;;;;;;12.00;11.75;;;;;15.80;43.07;98452.91;6130493;22;108446;-96
2021/05/21 01:56:55;;;;;;;;;12.00;11.75;;;;;15.77;42.72;98441.63;6017727;22;102330;-96
2021/05/21 01:59:34;;;;;;;;;13.75;11.00;;;;;15.73;42.77;98429.53;6144731;22;103886;-96
2021/05/21 02:02:09;;;;;;;;;11.75;9.75;;;;;15.76;42.63;98440.00;6064215;22;104395;-96
2021/05/21 02:05:04;;;;;;;;;13.00;12.75;;;;;15.71;43.03;98432.53;6148649;22;103050;-96
2021/05/21 02:07:40;;;;;;;;;10.00;9.25;;;;;15.74;43.19;98426.59;6113533;22;103676;-95
2021/05/21 02:10:18;;;;;;;;;16.00;12.25;;;;;15.78;42.91;98441.41;6143412;22;102144;-96
2021/05/21 02:12:48;;;;;;;;;11.00;10.75;;;;;15.70;43.21;98419.97;6152935;22;103387;-96
2021/05/21 02:15:25;;;;;;;;;9.75;9.00;;;;;15.75;42.92;98435.59;6112920;22;105667;-96
2021/05/21 02:18:00;;;;;;;;;15.50;12.00;;;;;15.70;43.12;98435.47;6177667;22;102976;-96
2021/05/21 02:20:37;;;;;;;;;13.75;10.00;;;;;15.69;42.37;98434.66;6129716;22;101939;-96
2021/05/21 02:23:12;;;;;;;;;11.25;9.75;;;;;15.63;42.97;98436.41;6029350;22;102248;-96
2021/05/21 02:25:52;;;;;;;;;9.50;9.50;;;;;15.67;42.71;98438.69;6139956;22;102227;-96
2021/05/21 02:28:32;;;;;;;;;11.00;10.50;;;;;15.65;42.59;98443.53;6131262;22;102340;-96
2021/05/21 02:31:11;;;;;;;;;13.50;11.25;;;;;15.60;42.67;98442.34;6113429;22;102421;-96
2021/05/21 02:33:47;;;;;;;;;9.75;9.00;;;;;15.66;42.51;98450.66;6120022;22;102248;-96
2021/05/21 02:36:40;;;;;;;;;9.25;8.75;;;;;15.61;42.46;98438.56;6109155;22;104215;-96
2021/05/21 02:39:15;;;;;;;;;11.75;9.50;;;;;15.59;42.57;98437.13;5981162;22;102849;-96
2021/05/21 02:41:54;;;;;;;;;13.00;10.50;;;;;15.55;42.74;98430.50;6143308;22;102234;-96
2021/05/21 02:44:30;;;;;;;;;9.00;8.00;;;;;15.56;42.73;98435.72;6158146;22;105111;-96
2021/05/21 02:47:06;;;;;;;;;11.50;10.50;;;;;15.53;42.99;98424.47;6141426;22;107932;-96
2021/05/21 02:49:43;;;;;;;;;13.00;11.75;;;;;15.59;42.91;98423.50;6081715;22;102101;-96
2021/05/21 02:52:22;;;;;;;;;11.00;10.00;;;;;15.58;42.44;98421.84;6189143;22;102458;-96
2021/05/21 02:54:59;;;;;;;;;11.25;9.50;;;;;15.51;42.27;98415.69;6181941;22;102136;-96
2021/05/21 02:57:35;;;;;;;;;10.50;10.00;;;;;15.56;42.58;98429.44;6095181;22;108176;-96
2021/05/21 03:00:19;;;;;;;;;12.25;10.75;;;;;15.56;42.81;98423.97;6148500;22;102485;-96
2021/05/21 03:02:54;;;;;;;;;10.00;9.00;;;;;15.51;42.13;98412.97;6177989;22;102165;-96
2021/05/21 03:05:34;;;;;;;;;11.50;10.25;;;;;15.47;42.51;98414.47;6142983;22;102281;-96
2021/05/21 03:08:12;;;;;;;;;10.00;10.00;;;;;15.46;42.84;98412.81;6155512;22;109859;-96
2021/05/21 03:10:46;;;;;;;;;10.75;10.75;;;;;15.46;42.54;98410.09;5929149;22;102542;-96
2021/05/21 03:13:22;;;;;;;;;9.25;9.00;;;;;15.46;42.74;98412.81;6145599;22;104432;-96
2021/05/21 03:15:52;;;;;;;;;11.00;11.00;;;;;15.46;42.28;98410.09;6059070;22;102073;-96
2021/05/21 03:18:40;;;;;;;;;11.75;10.00;;;;;15.49;42.45;98418.59;6117582;22;104483;-96
2021/05/21 03:21:09;;;;;;;;;12.00;10.00;;;;;15.42;41.98;98407.00;6135223;22;102146;-96
2021/05/21 03:23:41;;;;;;;;;10.75;9.75;;;;;15.45;42.49;98416.59;6146141;22;102177;-96
2021/05/21 03:26:09;;;;;;;;;12.25;9.00;;;;;15.42;42.36;98417.91;6127212;22;102106;-96
2021/05/21 03:28:40;;;;;;;;;10.00;9.25;;;;;15.43;42.54;98421.47;6157902;22;102956;-96
2021/05/21 03:31:11;;;;;;;;;10.50;9.25;;;;;15.46;42.06;98413.63;6110716;22;102154;-96
2021/05/21 03:33:39;;;;;;;;;12.50;10.75;;;;;15.45;42.35;98416.59;6128234;22;102371;-96
2021/05/21 03:36:10;;;;;;;;;12.75;11.00;;;;;15.36;42.42;98415.28;6136111;22;102452;-96
2021/05/21 03:38:41;;;;;;;;;8.75;8.75;;;;;15.41;42.27;98412.69;6135248;22;103193;-96
2021/05/21 03:41:10;;;;;;;;;10.00;9.00;;;;;15.39;42.20;98420.28;6147577;22;102171;-96
2021/05/21 03:43:38;;;;;;;;;9.00;8.50;;;;;15.35;42.28;98411.75;6122399;22;102186;-96
2021/05/21 03:46:06;;;;;;;;;13.75;10.00;;;;;15.37;42.48;98425.13;6168242;22;102133;-96
2021/05/21 03:48:36;;;;;;;;;10.25;9.00;;;;;15.26;41.99;98402.28;6134473;22;108686;-96
2021/05/21 03:51:04;;;;;;;;;10.25;9.00;;;;;15.33;42.49;98413.03;6174508;22;102323;-96
2021/05/21 03:53:32;;;;;;;;;8.75;8.75;;;;;15.32;42.64;98433.16;6118846;22;104613;-96
2021/05/21 03:56:01;;;;;;;;;9.25;9.25;;;;;15.32;42.13;98419.53;6204923;22;102140;-96
2021/05/21 03:58:30;;;;;;;;;8.50;8.25;;;;;15.38;41.98;98430.34;6150843;22;104500;-96
2021/05/21 04:01:01;;;;;;;;;8.25;8.25;;;;;15.28;42.21;98411.03;6069353;22;101949;-96
2021/05/21 04:03:31;;;;;;;;;9.50;9.50;;;;;15.27;41.98;98403.06;6101324;22;102070;-96
2021/05/21 04:06:00;;;;;;;;;11.25;9.50;;;;;15.36;42.36;98413.38;6098271;22;102679;-96
2021/05/21 04:08:29;;;;;;;;;10.25;8.00;;;;;15.28;41.81;98415.63;6130101;22;105115;-96
2021/05/21 04:10:57;;;;;;;;;11.75;8.75;;;;;15.28;42.28;98402.03;6070653;22;103892;-96
2021/05/21 04:13:26;;;;;;;;;12.25;9.25;;;;;15.30;41.96;98408.06;6043688;22;103257;-96
2021/05/21 04:15:57;;;;;;;;;11.00;10.00;;;;;15.34;42.30;98411.97;6018784;22;102196;-96
2021/05/21 04:18:25;;;;;;;;;7.75;7.50;;;;;15.34;42.30;98421.00;6111113;22;104406;-96
2021/05/21 04:20:54;;;;;;;;;10.75;9.50;;;;;15.36;42.02;98418.00;6072037;22;102181;-96
2021/05/21 04:23:23;;;;;;;;;11.00;9.00;;;;;15.31;41.96;98405.09;6093782;22;102205;-96
2021/05/21 04:25:51;;;;;;;;;10.00;9.25;;;;;15.31;41.68;98402.38;6055871;22;102209;-96
2021/05/21 04:28:20;;;;;;;;;9.00;9.00;;;;;15.32;41.91;98412.22;6153339;22;104543;-96
2021/05/21 04:30:48;;;;;;;;;13.75;11.25;;;;;15.33;41.96;98405.69;6142453;22;101954;-96
2021/05/21 04:33:16;;;;;;;;;10.25;10.25;;;;;15.35;41.56;98405.47;6095542;22;102433;-96
2021/05/21 04:35:48;;;;;;;;;10.00;9.25;;;;;15.32;42.01;98400.47;6089800;22;102104;-96
2021/05/21 04:38:16;;;;;;;;;9.25;8.50;;;;;15.32;41.82;98408.66;6069946;22;104105;-96
2021/05/21 04:40:44;;;;;;;;;8.25;8.00;;;;;15.32;41.90;98416.81;6113789;22;102406;-96
2021/05/21 04:43:12;;;;;;;;;7.00;7.00;;;;;15.30;42.18;98399.91;6114984;22;103534;-96
2021/05/21 04:45:43;;;;;;;;;8.25;7.50;;;;;15.33;41.71;98407.59;6152956;22;102194;-96
2021/05/21 04:48:13;;;;;;;;;10.00;9.00;;;;;15.28;41.99;98404.75;6058966;22;103536;-96
2021/05/21 04:50:43;;;;;;;;;9.00;9.00;;;;;15.30;41.91;98410.81;6158015;22;101956;-96
2021/05/21 04:53:11;;;;;;;;;9.00;8.50;;;;;15.29;42.10;98407.25;6096090;22;102125;-96
2021/05/21 04:55:40;;;;;;;;;8.75;8.75;;;;;15.28;42.17;98399.28;6149856;22;103090;-96
2021/05/21 04:58:09;;;;;;;;;10.50;9.50;;;;;15.29;42.04;98403.69;6146290;22;103345;-96
2021/05/21 05:00:40;;;;;;;;;9.75;8.50;;;;;15.23;42.25;98396.44;6137813;22;102492;-96
2021/05/21 05:03:09;;;;;;;;;11.50;9.50;;;;;15.25;43.05;98387.00;6098069;22;102288;-96
2021/05/21 05:05:38;;;;;;;;;10.00;9.25;;;;;15.27;42.82;98389.47;6114181;22;102174;-96
2021/05/21 05:08:05;;;;;;;;;9.25;8.00;;;;;15.25;42.73;98386.16;6128996;22;108368;-96
2021/05/21 05:10:34;;;;;;;;;9.25;8.25;;;;;15.26;42.60;98385.09;6068024;22;102068;-96
2021/05/21 05:13:04;;;;;;;;;9.75;8.00;;;;;15.29;42.45;98392.78;6067286;22;103663;-96
2021/05/21 05:15:37;;;;;;;;;10.00;10.00;;;;;15.29;42.72;98398.25;6066939;22;102374;-96
2021/05/21 05:18:06;;;;;;;;;9.00;8.75;;;;;15.25;42.53;98403.34;6129191;22;107321;-96
2021/05/21 05:20:38;;;;;;;;;8.25;7.25;;;;;15.33;42.66;98418.50;6076814;22;102210;-96
2021/05/21 05:23:10;;;;;;;;;10.00;8.75;;;;;15.31;42.84;98404.28;6070122;22;101888;-96
2021/05/21 05:25:42;;;;;;;;;10.00;9.00;;;;;15.28;43.09;98399.28;6108265;22;104841;-96
2021/05/21 05:28:12;;;;;;;;;11.25;9.00;;;;;15.28;42.94;98391.13;6114542;22;104281;-96
2021/05/21 05:30:41;;;;;;;;;8.00;8.00;;;;;15.29;43.23;98381.91;6156952;22;101667;-96
2021/05/21 17:20:38;;;;;;;;;2.00;2.00;;;;;17.78;50.91;97821.16;6145839;22;108531;-96
2021/05/21 17:26:22;;;;;;;;;3.00;3.00;;;;;17.75;51.76;97848.16;6221602;22;102317;-96
2021/05/21 17:46:13;;;;;;;;;2.00;2.00;;;;;17.68;51.48;97796.47;6117922;22;102202;-96
2021/05/21 17:48:10;;;;;;;;;3.00;2.00;;;;;17.67;52.12;97786.63;6189231;22;102175;-96
2021/05/21 17:53:35;;;;;;;;;3.00;2.67;;;;;17.67;52.15;97803.03;6210424;22;103730;-96
2021/05/21 17:59:07;;;;;;;;;3.00;3.00;;;;;17.66;51.89;97809.56;6235998;22;104365;-96
2021/05/21 18:09:39;;;;;;;;;2.33;2.33;;;;;17.63;51.92;97792.88;6164821;22;102661;-96
2021/05/21 18:42:29;;;;;;;;;1.67;1.67;;;;;17.59;52.82;97817.22;6234331;22;101995;-96
2021/05/21 19:04:08;;;;;;;;;2.00;2.00;;;;;17.54;53.29;97869.09;6150236;22;102067;-96
2021/05/21 19:09:15;;;;;;;;;2.67;1.00;;;;;17.54;52.87;97912.81;6124660;22;104413;-96
2021/05/21 19:11:53;;;;;;;;;1.00;1.00;;;;;17.60;52.62;97889.94;6060959;22;102045;-96
2021/05/21 19:17:15;;;;;;;;;2.00;2.00;;;;;17.55;52.69;97872.66;5869847;22;102415;-96
2021/05/21 19:20:15;;;;;;;;;1.67;1.00;;;;;17.52;53.10;97893.09;5713540;22;106447;-96
2021/05/21 19:23:17;;;;;;;;;1.00;0.00;;;;;17.54;52.25;97860.06;5814934;22;102159;-96
2021/05/21 19:26:07;;;;;;;;;0.67;0.67;;;;;17.59;53.28;97892.94;5808386;22;102249;-96
2021/05/21 19:40:04;;;;;;;;;2.00;2.00;;;;;17.50;53.10;97894.47;5777095;22;102387;-97
2021/05/21 20:04:11;;;;;;;;;2.00;2.00;;;;;17.50;53.53;97872.59;5798230;22;103852;-96
2021/05/21 20:12:52;;;;;;;;;2.00;2.00;;;;;17.46;53.45;97899.66;5838971;22;101875;-96
2021/05/21 20:15:45;;;;;;;;;3.00;2.00;;;;;17.50;53.58;97884.38;5900434;22;102191;-96
2021/05/21 20:18:22;;;;;;;;;2.00;2.00;;;;;17.46;53.78;97874.22;5717558;22;108090;-96
2021/05/21 20:20:56;;;;;;;;;3.33;3.00;;;;;17.42;53.63;97872.00;5883301;22;102078;-96
2021/05/21 20:23:41;;;;;;;;;3.00;2.00;;;;;17.51;53.54;97890.66;5906212;22;102357;-96
2021/05/21 20:26:31;;;;;;;;;2.00;2.00;;;;;17.42;53.74;97882.94;5764975;22;102273;-96
2021/05/21 20:29:37;;;;;;;;;2.00;2.00;;;;;17.49;53.48;97876.41;5769006;22;106997;-96
2021/05/21 20:43:38;;;;;;;;;4.00;3.00;;;;;17.46;53.46;97864.13;5941643;22;103042;-96
2021/05/21 21:01:11;;;;;;;;;3.00;3.00;;;;;17.43;53.63;97809.97;5898654;22;102048;-96
2021/05/21 21:04:04;;;;;;;;;3.00;1.67;;;;;17.34;53.72;97782.31;5874818;22;106115;-96
2021/05/21 21:06:54;;;;;;;;;2.00;2.00;;;;;17.25;53.98;97747.53;5961446;22;101462;-96
2021/05/21 21:09:50;;;;;;;;;3.00;3.00;;;;;17.35;54.09;97794.06;5885161;22;102021;-96
2021/05/21 21:18:44;;;;;;;;;2.00;1.00;;;;;17.34;53.57;97782.31;5879860;22;102520;-97
2021/05/21 21:21:39;;;;;;;;;2.00;2.00;;;;;17.34;53.77;97787.78;5840075;22;101765;-96
2021/05/21 21:27:14;;;;;;;;;2.33;2.33;;;;;17.39;54.10;97789.72;6013211;22;102420;-96
2021/05/21 21:30:26;;;;;;;;;3.00;3.00;;;;;17.31;54.70;97798.41;5880541;22;102134;-96
2021/05/21 21:53:35;;;;;;;;;2.00;2.00;;;;;17.27;53.18;97764.50;5855860;22;102724;-96
2021/05/21 21:59:15;;;;;;;;;2.00;2.00;;;;;17.31;53.98;97776.56;5930240;22;102539;-96
